createdAt,value
2018-04-18T00:02:04.098Z,100300.88
2018-04-18T00:04:33.807Z,100302.49
2018-04-18T00:07:03.040Z,100316.39
2018-04-18T00:09:32.325Z,100301.22
2018-04-18T00:12:00.660Z,100297.80
2018-04-18T00:14:29.065Z,100303.77
2018-04-18T00:16:59.116Z,100309.22
2018-04-18T00:19:27.551Z,100302.47
2018-04-18T00:21:56.149Z,100302.61
2018-04-18T00:24:24.590Z,100294.34
2018-04-18T00:26:53.232Z,100301.51
2018-04-18T00:29:22.529Z,100305.73
2018-04-18T00:31:52.156Z,100308.47
2018-04-18T00:34:21.964Z,100307.18
2018-04-18T00:36:50.390Z,100305.42
2018-04-18T00:39:18.754Z,100310.03
2018-04-18T00:41:47.672Z,100308.47
2018-04-18T00:44:16.512Z,100309.74
2018-04-18T00:46:45.653Z,100314.16
2018-04-18T00:49:14.021Z,100315.88
2018-04-18T00:51:43.996Z,100313.55
2018-04-18T00:54:13.461Z,100319.53
2018-04-18T00:56:42.237Z,100316.73
2018-04-18T00:59:11.964Z,100327.28
2018-04-18T01:01:41.078Z,100318.77
2018-04-18T01:04:09.812Z,100318.70
2018-04-18T01:06:39.899Z,100316.89
2018-04-18T01:09:08.529Z,100322.81
2018-04-18T01:11:37.638Z,100319.64
2018-04-18T01:14:06.784Z,100322.77
2018-04-18T01:16:36.922Z,100315.84
2018-04-18T01:19:06.236Z,100316.89
2018-04-18T01:21:35.195Z,100317.09
2018-04-18T01:24:04.974Z,100324.00
2018-04-18T01:26:33.848Z,100320.55
2018-04-18T01:29:02.351Z,100321.98
2018-04-18T01:31:30.756Z,100325.69
2018-04-18T01:33:59.448Z,100333.00
2018-04-18T01:36:28.587Z,100331.00
2018-04-18T01:38:58.067Z,100327.94
2018-04-18T01:41:27.315Z,100329.56
2018-04-18T01:43:58.044Z,100338.87
2018-04-18T01:46:26.470Z,100336.05
2018-04-18T01:52:04.694Z,100336.92
2018-04-18T01:54:33.056Z,100340.84
2018-04-18T01:57:02.240Z,100345.47
2018-04-18T01:59:30.628Z,100342.73
2018-04-18T02:01:59.007Z,100346.20
2018-04-18T02:04:28.212Z,100344.16
2018-04-18T02:06:56.545Z,100344.88
2018-04-18T02:09:25.505Z,100349.20
2018-04-18T02:11:54.678Z,100349.85
2018-04-18T02:14:24.058Z,100352.72
2018-04-18T02:16:54.166Z,100348.98
2018-04-18T02:19:23.237Z,100353.53
2018-04-18T02:21:51.731Z,100354.30
2018-04-18T02:24:21.205Z,100355.13
2018-04-18T02:26:50.936Z,100357.67
2018-04-18T02:29:20.624Z,100354.47
2018-04-18T02:31:49.153Z,100357.78
2018-04-18T02:34:18.405Z,100355.80
2018-04-18T02:36:47.633Z,100357.09
2018-04-18T02:39:15.996Z,100358.67
2018-04-18T02:41:46.102Z,100359.26
2018-04-18T02:44:16.216Z,100355.58
2018-04-18T02:46:46.041Z,100360.00
2018-04-18T02:49:16.575Z,100363.91
2018-04-18T02:51:45.758Z,100366.86
2018-04-18T02:54:16.174Z,100366.04
2018-04-18T02:56:45.853Z,100371.83
2018-04-18T02:59:14.206Z,100365.14
2018-04-18T03:01:42.587Z,100364.19
2018-04-18T03:04:13.376Z,100376.14
2018-04-18T03:06:42.666Z,100374.59
2018-04-18T03:09:12.825Z,100379.35
2018-04-18T03:11:43.715Z,100374.34
2018-04-18T03:14:12.913Z,100383.21
2018-04-18T03:16:41.732Z,100382.95
2018-04-18T03:19:10.713Z,100382.76
2018-04-18T03:21:40.913Z,100386.85
2018-04-18T03:24:11.016Z,100383.55
2018-04-18T03:26:39.384Z,100385.66
2018-04-18T03:29:07.882Z,100383.39
2018-04-18T03:31:36.317Z,100388.17
2018-04-18T03:34:05.400Z,100385.45
2018-04-18T03:36:34.991Z,100385.37
2018-04-18T03:39:04.222Z,100393.33
2018-04-18T03:41:33.401Z,100392.36
2018-04-18T03:44:02.879Z,100395.11
2018-04-18T03:46:31.740Z,100396.11
2018-04-18T03:49:00.381Z,100400.45
2018-04-18T03:51:30.429Z,100400.52
2018-04-18T03:53:59.492Z,100403.56
2018-04-18T03:56:29.405Z,100400.47
2018-04-18T03:58:59.625Z,100400.22
2018-04-18T04:01:29.427Z,100397.24
2018-04-18T04:03:59.624Z,100404.38
2018-04-18T04:06:27.998Z,100406.73
2018-04-18T04:08:57.708Z,100409.33
2018-04-18T04:11:26.465Z,100408.25
2018-04-18T04:13:54.829Z,100404.89
2018-04-18T04:16:35.583Z,100405.50
2018-04-18T04:19:15.655Z,100409.48
2018-04-18T04:21:55.846Z,100407.30
2018-04-18T04:24:50.864Z,100401.33
2018-04-18T04:27:19.681Z,100414.11
2018-04-18T04:29:49.189Z,100420.16
2018-04-18T04:32:17.791Z,100426.89
2018-04-18T04:34:49.072Z,100428.07
2018-04-18T04:37:19.953Z,100427.27
2018-04-18T04:39:50.312Z,100430.86
2018-04-18T04:42:18.770Z,100431.51
2018-04-18T04:44:47.941Z,100434.63
2018-04-18T04:47:17.970Z,100438.23
2018-04-18T04:49:47.651Z,100437.47
2018-04-18T04:52:16.915Z,100442.27
2018-04-18T04:54:45.304Z,100450.13
2018-04-18T04:57:14.484Z,100450.81
2018-04-18T04:59:44.304Z,100450.55
2018-04-18T05:02:12.725Z,100452.67
2018-04-18T05:04:41.317Z,100454.22
2018-04-18T05:07:09.689Z,100453.96
2018-04-18T05:09:38.977Z,100453.98
2018-04-18T05:12:07.496Z,100450.84
2018-04-18T05:14:37.127Z,100454.84
2018-04-18T05:17:05.501Z,100454.45
2018-04-18T05:19:35.412Z,100458.28
2018-04-18T05:22:04.342Z,100462.80
2018-04-18T05:24:33.566Z,100453.69
2018-04-18T05:27:04.350Z,100458.38
2018-04-18T05:29:33.454Z,100471.89
2018-04-18T05:32:01.794Z,100475.55
2018-04-18T05:34:31.329Z,100474.64
2018-04-18T05:36:59.970Z,100476.56
2018-04-18T05:39:29.320Z,100481.64
2018-04-18T05:41:58.390Z,100482.33
2018-04-18T05:44:27.769Z,100485.95
2018-04-18T05:46:57.193Z,100487.24
2018-04-18T05:49:26.192Z,100481.95
2018-04-18T05:51:54.637Z,100490.16
2018-04-18T05:54:23.933Z,100491.03
2018-04-18T05:56:53.857Z,100497.83
2018-04-18T05:59:23.068Z,100500.05
2018-04-18T06:01:53.062Z,100497.97
2018-04-18T06:04:22.313Z,100505.86
2018-04-18T06:06:52.005Z,100506.67
2018-04-18T06:09:21.589Z,100512.26
2018-04-18T06:11:50.508Z,100507.14
2018-04-18T06:14:18.893Z,100509.47
2018-04-18T06:16:47.317Z,100510.20
2018-04-18T06:19:17.239Z,100509.73
2018-04-18T06:21:46.366Z,100508.87
2018-04-18T06:24:14.889Z,100518.29
2018-04-18T06:26:45.064Z,100511.34
2018-04-18T06:29:14.002Z,100516.70
2018-04-18T06:31:42.578Z,100508.88
2018-04-18T06:34:11.999Z,100514.54
2018-04-18T06:36:41.208Z,100512.61
2018-04-18T06:39:10.934Z,100517.28
2018-04-18T06:41:39.305Z,100520.10
2018-04-18T06:44:08.275Z,100517.42
2018-04-18T06:46:37.732Z,100523.00
2018-04-18T06:49:06.586Z,100518.77
2018-04-18T06:51:36.739Z,100523.91
2018-04-18T06:54:06.488Z,100524.89
2018-04-18T06:56:36.091Z,100527.92
2018-04-18T06:59:04.531Z,100527.86
2018-04-18T07:01:33.686Z,100534.61
2018-04-18T07:04:03.301Z,100529.77
2018-04-18T07:06:31.929Z,100535.69
2018-04-18T07:09:01.526Z,100538.20
2018-04-18T07:11:31.209Z,100539.97
2018-04-18T07:14:00.700Z,100545.23
2018-04-18T07:16:30.067Z,100543.38
2018-04-18T07:18:58.451Z,100541.23
2018-04-18T07:21:27.710Z,100541.70
2018-04-18T07:23:56.745Z,100531.29
2018-04-18T07:26:26.350Z,100538.91
2018-04-18T07:28:55.924Z,100543.73
2018-04-18T07:31:25.425Z,100536.90
2018-04-18T07:33:53.760Z,100544.81
2018-04-18T07:36:23.391Z,100548.30
2018-04-18T07:38:52.613Z,100550.23
2018-04-18T07:41:22.172Z,100553.85
2018-04-18T07:43:50.548Z,100554.27
2018-04-18T07:46:19.043Z,100559.56
2018-04-18T07:48:47.566Z,100565.48
2018-04-18T07:51:17.746Z,100563.32
2018-04-18T07:53:47.503Z,100572.47
2018-04-18T07:56:16.706Z,100567.65
2018-04-18T07:58:45.076Z,100572.90
2018-04-18T08:01:14.323Z,100574.12
2018-04-18T08:03:42.709Z,100575.03
2018-04-18T08:06:15.091Z,100575.20
2018-04-18T08:08:45.292Z,100577.14
2018-04-18T08:11:15.860Z,100576.80
2018-04-18T08:13:45.058Z,100577.59
2018-04-18T08:16:13.465Z,100575.92
2018-04-18T08:18:42.359Z,100572.37
2018-04-18T08:21:13.502Z,100577.19
2018-04-18T08:23:41.937Z,100575.77
2018-04-18T08:26:11.082Z,100576.45
2018-04-18T08:28:40.639Z,100576.30
2018-04-18T08:31:09.935Z,100576.27
2018-04-18T08:33:39.232Z,100577.76
2018-04-18T08:36:07.603Z,100573.39
2018-04-18T08:38:36.431Z,100572.97
2018-04-18T08:41:05.551Z,100575.11
2018-04-18T08:43:34.830Z,100582.45
2018-04-18T08:46:03.231Z,100574.42
2018-04-18T08:48:32.737Z,100577.28
2018-04-18T08:51:01.914Z,100581.30
2018-04-18T08:53:30.386Z,100576.24
2018-04-18T08:56:00.538Z,100579.61
2018-04-18T08:58:28.900Z,100582.45
2018-04-18T09:00:58.353Z,100577.55
2018-04-18T09:03:27.599Z,100577.36
2018-04-18T09:05:56.036Z,100579.55
2018-04-18T09:08:24.362Z,100580.03
2018-04-18T09:10:53.441Z,100572.47
2018-04-18T09:13:22.065Z,100572.54
2018-04-18T09:15:51.226Z,100567.17
2018-04-18T09:18:20.357Z,100561.50
2018-04-18T09:20:49.983Z,100568.11
2018-04-18T09:23:19.504Z,100562.67
2018-04-18T09:25:48.646Z,100562.58
2018-04-18T09:28:18.002Z,100559.95
2018-04-18T09:30:47.333Z,100558.86
2018-04-18T09:33:15.971Z,100557.67
2018-04-18T09:35:45.563Z,100560.59
2018-04-18T09:38:14.734Z,100561.37
2018-04-18T09:40:43.876Z,100553.20
2018-04-18T09:43:13.127Z,100554.30
2018-04-18T09:45:48.717Z,100558.06
2018-04-18T09:48:17.807Z,100557.44
2018-04-18T09:50:48.320Z,100555.63
2018-04-18T09:53:19.470Z,100556.75
2018-04-18T09:55:47.912Z,100554.88
2018-04-18T09:58:16.323Z,100552.42
2018-04-18T10:00:50.686Z,100548.34
2018-04-18T10:03:20.781Z,100558.06
2018-04-18T10:05:49.214Z,100552.37
2018-04-18T10:08:19.024Z,100547.50
2018-04-18T10:10:48.026Z,100548.52
2018-04-18T10:13:16.400Z,100546.73
2018-04-18T10:15:44.734Z,100549.05
2018-04-18T10:18:13.094Z,100537.10
2018-04-18T10:20:41.541Z,100546.00
2018-04-18T10:23:09.883Z,100544.55
2018-04-18T10:25:39.229Z,100547.22
2018-04-18T10:28:07.583Z,100546.06
2018-04-18T10:30:37.118Z,100542.51
2018-04-18T10:33:05.867Z,100541.00
2018-04-18T10:35:36.014Z,100537.84
2018-04-18T10:38:04.996Z,100541.20
2018-04-18T10:40:34.253Z,100539.37
2018-04-18T10:43:04.531Z,100536.02
2018-04-18T10:45:33.316Z,100536.05
2018-04-18T10:48:02.822Z,100535.95
2018-04-18T10:50:32.627Z,100543.38
2018-04-18T10:53:01.792Z,100538.59
2018-04-18T10:55:31.740Z,100535.64
2018-04-18T10:58:00.372Z,100533.56
2018-04-18T11:00:29.258Z,100536.22
2018-04-18T11:02:57.652Z,100534.86
2018-04-18T11:05:27.286Z,100530.22
2018-04-18T11:07:55.635Z,100529.51
2018-04-18T11:10:26.763Z,100528.12
2018-04-18T11:12:56.698Z,100526.25
2018-04-18T11:15:27.422Z,100531.02
2018-04-18T11:17:55.826Z,100533.31
2018-04-18T11:20:25.034Z,100527.47
2018-04-18T11:22:55.025Z,100525.98
2018-04-18T11:25:25.335Z,100525.64
2018-04-18T11:27:55.317Z,100525.32
2018-04-18T11:30:23.743Z,100519.58
2018-04-18T11:32:52.415Z,100522.30
2018-04-18T11:35:22.310Z,100520.74
2018-04-18T11:37:51.454Z,100523.15
2018-04-18T11:40:20.735Z,100517.63
2018-04-18T11:42:49.846Z,100516.17
2018-04-18T11:45:18.242Z,100514.12
2018-04-18T11:47:48.794Z,100512.45
2018-04-18T11:50:17.920Z,100510.33
2018-04-18T11:52:46.557Z,100509.34
2018-04-18T11:55:15.809Z,100507.08
2018-04-18T11:57:45.031Z,100508.66
2018-04-18T12:00:14.329Z,100501.66
2018-04-18T12:02:44.150Z,100503.73
2018-04-18T12:05:12.521Z,100505.63
2018-04-18T12:07:42.591Z,100503.86
2018-04-18T12:10:11.668Z,100502.80
2018-04-18T12:12:44.405Z,100505.88
2018-04-18T12:15:13.348Z,100499.83
2018-04-18T12:17:43.745Z,100495.23
2018-04-18T12:20:12.100Z,100497.93
2018-04-18T12:22:42.239Z,100497.10
2018-04-18T12:25:12.437Z,100497.88
2018-04-18T12:27:41.135Z,100497.73
2018-04-18T12:30:10.837Z,100497.58
2018-04-18T12:32:40.382Z,100493.44
2018-04-18T12:35:10.507Z,100489.56
2018-04-18T12:37:40.633Z,100494.91
2018-04-18T12:40:09.928Z,100488.55
2018-04-18T12:42:39.968Z,100488.84
2018-04-18T12:45:08.828Z,100481.59
2018-04-18T12:47:37.434Z,100490.41
2018-04-18T12:50:09.799Z,100482.57
2018-04-18T12:52:40.814Z,100481.84
2018-04-18T12:55:12.247Z,100480.63
2018-04-18T12:57:41.872Z,100484.05
2018-04-18T13:00:12.252Z,100483.26
2018-04-18T13:02:41.820Z,100475.42
2018-04-18T13:05:12.119Z,100471.06
2018-04-18T13:07:42.893Z,100467.92
2018-04-18T13:10:11.565Z,100466.38
2018-04-18T13:12:40.854Z,100467.38
2018-04-18T13:15:09.305Z,100460.45
2018-04-18T13:17:38.083Z,100461.14
2018-04-18T13:20:08.816Z,100455.95
2018-04-18T13:25:07.174Z,100451.60
2018-04-18T13:27:36.533Z,100451.31
2018-04-18T13:30:05.296Z,100447.58
2018-04-18T13:32:33.755Z,100445.79
2018-04-18T13:35:03.222Z,100438.30
2018-04-18T13:37:32.831Z,100447.11
2018-04-18T13:40:01.717Z,100440.27
2018-04-18T13:42:31.042Z,100435.78
2018-04-18T13:45:01.305Z,100434.03
2018-04-18T13:47:34.412Z,100429.86
2018-04-18T13:50:02.750Z,100427.77
2018-04-18T13:52:31.947Z,100428.09
2018-04-18T13:55:01.189Z,100422.22
2018-04-18T13:57:31.427Z,100419.47
2018-04-18T14:00:00.212Z,100420.47
2018-04-18T14:02:31.921Z,100418.23
2018-04-18T14:05:02.271Z,100417.14
2018-04-18T14:07:31.889Z,100410.99
2018-04-18T14:10:00.286Z,100408.53
2018-04-18T14:12:30.035Z,100408.21
2018-04-18T14:15:01.623Z,100409.47
2018-04-18T14:17:30.715Z,100407.88
2018-04-18T14:20:02.329Z,100405.37
2018-04-18T14:22:32.398Z,100399.61
2018-04-18T14:25:01.530Z,100403.76
2018-04-18T14:27:30.758Z,100404.19
2018-04-18T14:30:00.869Z,100407.16
2018-04-18T14:32:29.625Z,100403.13
2018-04-18T14:34:58.003Z,100399.86
2018-04-18T14:37:27.236Z,100397.77
2018-04-18T14:39:56.214Z,100393.27
2018-04-18T14:42:27.431Z,100393.17
2018-04-18T14:44:56.354Z,100395.02
2018-04-18T14:47:25.159Z,100393.31
2018-04-18T14:49:55.211Z,100382.22
2018-04-18T14:52:24.526Z,100382.48
2018-04-18T14:54:53.332Z,100383.08
2018-04-18T14:57:23.490Z,100379.66
2018-04-18T14:59:53.599Z,100375.27
2018-04-18T15:02:23.409Z,100373.21
2018-04-18T15:04:52.643Z,100370.48
2018-04-18T15:07:22.117Z,100371.41
2018-04-18T15:09:50.539Z,100371.35
2018-04-18T15:12:20.373Z,100372.37
2018-04-18T15:14:56.233Z,100371.57
2018-04-18T15:17:26.885Z,100369.80
2018-04-18T15:19:55.220Z,100370.95
2018-04-18T15:22:24.687Z,100367.77
2018-04-18T15:24:53.533Z,100363.48
2018-04-18T15:27:21.928Z,100365.69
2018-04-18T15:29:51.810Z,100361.88
2018-04-18T15:32:22.580Z,100356.79
2018-04-18T15:34:51.489Z,100356.89
2018-04-18T15:37:20.853Z,100354.44
2018-04-18T15:39:52.236Z,100352.39
2018-04-18T15:42:22.612Z,100348.87
2018-04-18T15:44:51.990Z,100343.91
2018-04-18T15:47:21.981Z,100343.32
2018-04-18T15:49:53.058Z,100341.36
2018-04-18T15:52:24.052Z,100337.66
2018-04-18T15:54:54.123Z,100336.95
2018-04-18T15:57:23.593Z,100334.53
2018-04-18T15:59:51.968Z,100340.31
2018-04-18T16:02:21.027Z,100330.97
2018-04-18T16:04:52.800Z,100336.16
2018-04-18T16:07:23.771Z,100337.58
2018-04-18T16:09:53.274Z,100341.23
2018-04-18T16:12:29.081Z,100332.61
2018-04-18T16:15:01.365Z,100336.48
2018-04-18T16:17:30.008Z,100337.62
2018-04-18T16:19:59.398Z,100331.61
2018-04-18T16:22:27.934Z,100336.08
2018-04-18T16:24:59.206Z,100325.94
2018-04-18T16:27:27.583Z,100331.66
2018-04-18T16:29:56.857Z,100327.02
2018-04-18T16:32:26.063Z,100330.52
2018-04-18T16:34:55.794Z,100332.77
2018-04-18T16:37:25.276Z,100331.81
2018-04-18T16:39:54.618Z,100327.26
2018-04-18T16:42:22.938Z,100333.53
2018-04-18T16:44:52.465Z,100322.08
2018-04-18T16:47:23.247Z,100320.38
2018-04-18T16:49:52.618Z,100319.17
2018-04-18T16:52:21.998Z,100319.13
2018-04-18T16:54:51.509Z,100318.33
2018-04-18T16:57:19.888Z,100309.92
2018-04-18T16:59:49.812Z,100309.70
2018-04-18T17:02:19.966Z,100303.95
2018-04-18T17:04:55.331Z,100301.00
2018-04-18T17:07:26.297Z,100294.84
2018-04-18T17:09:57.054Z,100301.00
2018-04-18T17:12:27.357Z,100302.20
2018-04-18T17:14:56.516Z,100300.83
2018-04-18T17:17:37.620Z,100294.61
2018-04-18T17:20:14.110Z,100292.37
2018-04-18T17:22:43.977Z,100295.19
2018-04-18T17:25:13.568Z,100299.66
2018-04-18T17:27:41.993Z,100297.19
2018-04-18T17:30:11.707Z,100294.23
2018-04-18T17:32:40.798Z,100296.77
2018-04-18T17:35:10.930Z,100293.92
2018-04-18T17:37:45.001Z,100292.16
2018-04-18T17:40:15.513Z,100292.24
2018-04-18T17:42:45.097Z,100292.36
2018-04-18T17:45:14.855Z,100292.75
2018-04-18T17:47:45.184Z,100289.59
2018-04-18T17:50:13.698Z,100293.45
2018-04-18T17:52:42.812Z,100291.87
2018-04-18T17:55:13.050Z,100293.39
2018-04-18T17:57:42.601Z,100292.97
2018-04-18T18:00:12.319Z,100287.65
2018-04-18T18:02:41.517Z,100293.70
2018-04-18T18:05:10.219Z,100293.77
2018-04-18T18:07:43.800Z,100286.72
2018-04-18T18:10:17.309Z,100288.83
2018-04-18T18:12:46.863Z,100292.25
2018-04-18T18:15:15.260Z,100288.09
2018-04-18T18:17:45.928Z,100291.41
2018-04-18T18:20:14.290Z,100292.05
2018-04-18T18:22:43.558Z,100300.05
2018-04-18T18:25:13.810Z,100294.94
2018-04-18T18:27:45.986Z,100302.48
2018-04-18T18:30:16.981Z,100298.61
2018-04-18T18:32:47.112Z,100307.36
2018-04-18T18:35:15.458Z,100313.14
2018-04-18T18:37:44.884Z,100307.55
2018-04-18T18:40:14.211Z,100311.36
2018-04-18T18:42:43.542Z,100314.82
2018-04-18T18:45:12.128Z,100314.26
2018-04-18T18:47:41.142Z,100323.16
2018-04-18T18:50:10.178Z,100319.69
2018-04-18T18:52:39.630Z,100321.47
2018-04-18T18:55:08.009Z,100323.20
2018-04-18T18:57:37.190Z,100323.00
2018-04-18T19:00:06.282Z,100323.10
2018-04-18T19:02:35.738Z,100324.08
2018-04-18T19:05:05.343Z,100328.39
2018-04-18T19:07:34.258Z,100325.25
2018-04-18T19:10:03.997Z,100319.66
2018-04-18T19:12:33.485Z,100327.84
2018-04-18T19:15:02.748Z,100325.55
2018-04-18T19:17:31.170Z,100327.89
2018-04-18T19:20:02.030Z,100335.90
2018-04-18T19:22:32.649Z,100338.53
2018-04-18T19:25:03.246Z,100344.74
2018-04-18T19:27:33.085Z,100347.53
2018-04-18T19:30:07.175Z,100348.31
2018-04-18T19:32:37.349Z,100348.06
2018-04-18T19:35:07.981Z,100350.38
2018-04-18T19:37:45.448Z,100349.97
2018-04-18T19:40:15.319Z,100351.08
2018-04-18T19:42:44.258Z,100353.95
2018-04-18T19:45:12.701Z,100352.02
2018-04-18T19:47:41.917Z,100352.29
2018-04-18T19:50:12.863Z,100358.06
2018-04-18T19:52:41.192Z,100357.16
2018-04-18T19:55:09.608Z,100354.49
2018-04-18T19:57:39.444Z,100352.57
2018-04-18T20:00:07.840Z,100353.61
2018-04-18T20:02:37.934Z,100355.87
2018-04-18T20:05:06.350Z,100352.11
2018-04-18T20:07:34.705Z,100345.64
2018-04-18T20:10:04.505Z,100346.75
2018-04-18T20:12:33.948Z,100351.27
2018-04-18T20:15:03.386Z,100347.58
2018-04-18T20:17:31.762Z,100345.74
2018-04-18T20:20:01.688Z,100349.55
2018-04-18T20:22:31.087Z,100342.67
2018-04-18T20:24:59.447Z,100345.89
2018-04-18T20:27:28.625Z,100341.92
2018-04-18T20:29:58.304Z,100343.63
2018-04-18T20:32:27.826Z,100341.50
2018-04-18T20:34:57.057Z,100344.34
2018-04-18T20:37:26.357Z,100342.42
2018-04-18T20:39:54.792Z,100344.19
2018-04-18T20:42:24.269Z,100342.92
2018-04-18T20:44:52.870Z,100346.14
2018-04-18T20:47:22.259Z,100341.43
2018-04-18T20:49:51.270Z,100343.38
2018-04-18T20:52:20.925Z,100344.03
2018-04-18T20:54:50.438Z,100341.98
2018-04-18T20:57:19.006Z,100338.81
2018-04-18T20:59:49.650Z,100352.48
2018-04-18T21:02:20.946Z,100346.40
2018-04-18T21:04:49.292Z,100349.03
2018-04-18T21:07:17.695Z,100342.21
2018-04-18T21:09:47.721Z,100343.59
2018-04-18T21:12:17.025Z,100344.20
2018-04-18T21:14:45.505Z,100348.72
2018-04-18T21:17:15.343Z,100349.59
2018-04-18T21:19:45.525Z,100347.31
2018-04-18T21:22:14.816Z,100351.50
2018-04-18T21:24:43.952Z,100351.83
2018-04-18T21:27:13.262Z,100358.73
2018-04-18T21:29:41.706Z,100350.43
2018-04-18T21:32:11.718Z,100356.72
2018-04-18T21:34:40.124Z,100354.88
2018-04-18T21:37:09.465Z,100353.45
2018-04-18T21:39:37.932Z,100354.46
2018-04-18T21:42:07.999Z,100351.47
2018-04-18T21:44:37.649Z,100345.69
2018-04-18T21:47:07.607Z,100350.92
2018-04-18T21:49:37.206Z,100355.16
2018-04-18T21:52:07.264Z,100344.56
2018-04-18T21:54:36.651Z,100351.47
2018-04-18T21:57:05.253Z,100349.78
2018-04-18T21:59:35.390Z,100345.05
2018-04-18T22:02:04.241Z,100348.44
2018-04-18T22:04:33.075Z,100347.38
2018-04-18T22:07:03.512Z,100350.01
2018-04-18T22:09:32.425Z,100347.19
2018-04-18T22:12:02.473Z,100347.03
2018-04-18T22:14:32.013Z,100344.02
2018-04-18T22:17:02.604Z,100343.78
2018-04-18T22:19:31.610Z,100346.05
2018-04-18T22:22:01.811Z,100341.61
2018-04-18T22:24:30.803Z,100345.25
2018-04-18T22:26:59.218Z,100346.41
2018-04-18T22:29:28.523Z,100341.78
2018-04-18T22:31:57.597Z,100338.33
2018-04-18T22:34:26.878Z,100340.20
2018-04-18T22:36:57.009Z,100342.36
2018-04-18T22:39:27.149Z,100337.97
2018-04-18T22:41:55.531Z,100337.31
2018-04-18T22:44:23.974Z,100333.17
2018-04-18T22:46:53.422Z,100335.85
2018-04-18T22:49:23.441Z,100338.72
2018-04-18T22:51:52.084Z,100343.60
2018-04-18T22:54:20.473Z,100341.91
2018-04-18T22:56:49.618Z,100344.17
2018-04-18T22:59:18.009Z,100343.19
2018-04-18T23:01:48.186Z,100349.89
2018-04-18T23:04:16.543Z,100339.17
2018-04-18T23:06:44.916Z,100337.39
2018-04-18T23:09:14.752Z,100338.61
2018-04-18T23:11:43.193Z,100340.31
2018-04-18T23:14:12.301Z,100335.72
2018-04-18T23:16:41.697Z,100337.70
2018-04-18T23:19:11.258Z,100348.24
2018-04-18T23:21:40.495Z,100342.00
2018-04-18T23:24:10.435Z,100336.48
2018-04-18T23:26:39.549Z,100335.44
2018-04-18T23:29:07.915Z,100335.16
2018-04-18T23:31:36.837Z,100334.91
2018-04-18T23:34:06.107Z,100333.03
2018-04-18T23:36:36.398Z,100336.22
2018-04-18T23:39:07.139Z,100335.03
2018-04-18T23:41:36.177Z,100338.02
2018-04-18T23:44:05.075Z,100340.64
2018-04-18T23:46:35.266Z,100336.16
2018-04-18T23:49:04.280Z,100339.88
2018-04-18T23:51:33.157Z,100338.02
2018-04-18T23:54:02.064Z,100344.63
2018-04-18T23:56:31.185Z,100341.55
2018-04-18T23:58:59.617Z,100335.34
